sensor_id;sensor_type;location;lat;lon;timestamp;P1;durP1;ratioP1;P2;durP2;ratioP2
53598;SDS011;39485;45.702;11.364;2022-12-19T00:02:12;0.97;;;0.97;;
53598;SDS011;39485;45.702;11.364;2022-12-19T00:04:38;1.50;;;1.40;;
53598;SDS011;39485;45.702;11.364;2022-12-19T00:07:03;1.17;;;1.17;;
53598;SDS011;39485;45.702;11.364;2022-12-19T00:09:29;0.87;;;0.87;;
53598;SDS011;39485;45.702;11.364;2022-12-19T00:11:54;1.47;;;1.27;;
53598;SDS011;39485;45.702;11.364;2022-12-19T00:14:20;0.80;;;0.80;;
53598;SDS011;39485;45.702;11.364;2022-12-19T00:16:46;1.37;;;1.03;;
53598;SDS011;39485;45.702;11.364;2022-12-19T00:19:11;0.40;;;0.40;;
53598;SDS011;39485;45.702;11.364;2022-12-19T00:21:37;2.33;;;1.63;;
53598;SDS011;39485;45.702;11.364;2022-12-19T00:24:04;1.87;;;0.83;;
53598;SDS011;39485;45.702;11.364;2022-12-19T00:26:35;1.23;;;1.23;;
53598;SDS011;39485;45.702;11.364;2022-12-19T00:29:04;0.40;;;0.40;;
53598;SDS011;39485;45.702;11.364;2022-12-19T00:31:33;1.93;;;1.83;;
53598;SDS011;39485;45.702;11.364;2022-12-19T00:34:00;0.73;;;0.73;;
53598;SDS011;39485;45.702;11.364;2022-12-19T00:36:30;0.90;;;0.90;;
53598;SDS011;39485;45.702;11.364;2022-12-19T00:38:57;0.50;;;0.50;;
53598;SDS011;39485;45.702;11.364;2022-12-19T00:41:25;1.80;;;1.70;;
53598;SDS011;39485;45.702;11.364;2022-12-19T00:43:56;2.00;;;1.90;;
53598;SDS011;39485;45.702;11.364;2022-12-19T00:46:22;2.03;;;1.83;;
53598;SDS011;39485;45.702;11.364;2022-12-19T00:48:48;2.00;;;1.87;;
53598;SDS011;39485;45.702;11.364;2022-12-19T00:51:15;1.47;;;1.37;;
53598;SDS011;39485;45.702;11.364;2022-12-19T00:53:43;0.90;;;0.90;;
53598;SDS011;39485;45.702;11.364;2022-12-19T00:56:14;0.97;;;0.97;;
53598;SDS011;39485;45.702;11.364;2022-12-19T00:58:41;0.77;;;0.77;;
53598;SDS011;39485;45.702;11.364;2022-12-19T01:01:17;2.13;;;2.03;;
53598;SDS011;39485;45.702;11.364;2022-12-19T01:03:45;0.73;;;0.73;;
53598;SDS011;39485;45.702;11.364;2022-12-19T01:06:11;1.33;;;1.33;;
53598;SDS011;39485;45.702;11.364;2022-12-19T01:08:36;1.27;;;1.27;;
53598;SDS011;39485;45.702;11.364;2022-12-19T01:11:02;0.67;;;0.67;;
53598;SDS011;39485;45.702;11.364;2022-12-19T01:13:29;2.30;;;1.73;;
53598;SDS011;39485;45.702;11.364;2022-12-19T01:16:10;1.07;;;1.07;;
53598;SDS011;39485;45.702;11.364;2022-12-19T01:18:37;0.87;;;0.87;;
53598;SDS011;39485;45.702;11.364;2022-12-19T01:21:05;1.17;;;1.07;;
53598;SDS011;39485;45.702;11.364;2022-12-19T01:23:32;1.50;;;1.40;;
53598;SDS011;39485;45.702;11.364;2022-12-19T01:25:58;1.00;;;1.00;;
53598;SDS011;39485;45.702;11.364;2022-12-19T01:28:24;4.20;;;1.40;;
53598;SDS011;39485;45.702;11.364;2022-12-19T01:30:50;1.77;;;1.67;;
53598;SDS011;39485;45.702;11.364;2022-12-19T01:33:16;2.83;;;1.53;;
53598;SDS011;39485;45.702;11.364;2022-12-19T01:35:44;0.97;;;0.97;;
53598;SDS011;39485;45.702;11.364;2022-12-19T01:38:14;0.50;;;0.50;;
53598;SDS011;39485;45.702;11.364;2022-12-19T01:40:48;0.83;;;0.83;;
53598;SDS011;39485;45.702;11.364;2022-12-19T01:43:15;1.98;;;1.88;;
53598;SDS011;39485;45.702;11.364;2022-12-19T01:45:42;0.40;;;0.40;;
53598;SDS011;39485;45.702;11.364;2022-12-19T01:50:37;1.30;;;1.23;;
53598;SDS011;39485;45.702;11.364;2022-12-19T01:53:08;2.20;;;1.80;;
53598;SDS011;39485;45.702;11.364;2022-12-19T01:55:35;0.80;;;0.80;;
53598;SDS011;39485;45.702;11.364;2022-12-19T01:58:03;1.73;;;1.20;;
53598;SDS011;39485;45.702;11.364;2022-12-19T02:00:29;1.23;;;1.23;;
53598;SDS011;39485;45.702;11.364;2022-12-19T02:02:58;4.63;;;2.13;;
53598;SDS011;39485;45.702;11.364;2022-12-19T02:05:28;0.80;;;0.80;;
53598;SDS011;39485;45.702;11.364;2022-12-19T02:07:55;1.93;;;1.50;;
53598;SDS011;39485;45.702;11.364;2022-12-19T02:10:21;0.83;;;0.83;;
53598;SDS011;39485;45.702;11.364;2022-12-19T02:12:47;0.50;;;0.50;;
53598;SDS011;39485;45.702;11.364;2022-12-19T02:15:13;0.77;;;0.77;;
53598;SDS011;39485;45.702;11.364;2022-12-19T02:25:58;1.40;;;1.20;;
53598;SDS011;39485;45.702;11.364;2022-12-19T02:31:48;1.73;;;1.03;;
53598;SDS011;39485;45.702;11.364;2022-12-19T02:34:30;0.77;;;0.77;;
53598;SDS011;39485;45.702;11.364;2022-12-19T02:37:09;5.73;;;1.50;;
53598;SDS011;39485;45.702;11.364;2022-12-19T02:42:40;1.87;;;1.77;;
53598;SDS011;39485;45.702;11.364;2022-12-19T02:45:09;1.90;;;1.37;;
53598;SDS011;39485;45.702;11.364;2022-12-19T02:47:38;1.07;;;1.07;;
53598;SDS011;39485;45.702;11.364;2022-12-19T02:50:04;1.37;;;1.27;;
53598;SDS011;39485;45.702;11.364;2022-12-19T02:55:16;3.40;;;1.60;;
53598;SDS011;39485;45.702;11.364;2022-12-19T03:00:22;0.70;;;0.70;;
53598;SDS011;39485;45.702;11.364;2022-12-19T03:11:05;1.03;;;1.03;;
53598;SDS011;39485;45.702;11.364;2022-12-19T03:13:34;1.63;;;1.53;;
53598;SDS011;39485;45.702;11.364;2022-12-19T03:16:15;2.47;;;2.27;;
53598;SDS011;39485;45.702;11.364;2022-12-19T03:18:40;0.80;;;0.80;;
53598;SDS011;39485;45.702;11.364;2022-12-19T03:23:58;1.43;;;1.30;;
53598;SDS011;39485;45.702;11.364;2022-12-19T03:26:26;6.07;;;1.33;;
53598;SDS011;39485;45.702;11.364;2022-12-19T03:29:07;0.63;;;0.63;;
53598;SDS011;39485;45.702;11.364;2022-12-19T03:31:33;1.80;;;1.67;;
53598;SDS011;39485;45.702;11.364;2022-12-19T03:34:04;1.13;;;1.13;;
53598;SDS011;39485;45.702;11.364;2022-12-19T03:36:41;3.47;;;1.90;;
53598;SDS011;39485;45.702;11.364;2022-12-19T03:39:10;0.93;;;0.93;;
53598;SDS011;39485;45.702;11.364;2022-12-19T03:41:38;3.10;;;2.90;;
53598;SDS011;39485;45.702;11.364;2022-12-19T03:44:26;2.73;;;2.17;;
53598;SDS011;39485;45.702;11.364;2022-12-19T03:47:00;1.80;;;1.73;;
53598;SDS011;39485;45.702;11.364;2022-12-19T03:49:31;1.30;;;1.20;;
53598;SDS011;39485;45.702;11.364;2022-12-19T03:51:59;1.57;;;1.50;;
53598;SDS011;39485;45.702;11.364;2022-12-19T03:54:47;0.47;;;0.47;;
53598;SDS011;39485;45.702;11.364;2022-12-19T03:57:28;2.22;;;1.55;;
53598;SDS011;39485;45.702;11.364;2022-12-19T04:00:13;1.43;;;1.43;;
53598;SDS011;39485;45.702;11.364;2022-12-19T04:02:42;0.77;;;0.77;;
53598;SDS011;39485;45.702;11.364;2022-12-19T04:05:11;4.90;;;1.50;;
53598;SDS011;39485;45.702;11.364;2022-12-19T04:08:04;5.60;;;3.20;;
53598;SDS011;39485;45.702;11.364;2022-12-19T04:10:33;4.33;;;2.07;;
53598;SDS011;39485;45.702;11.364;2022-12-19T04:13:15;1.93;;;1.83;;
53598;SDS011;39485;45.702;11.364;2022-12-19T04:18:32;6.70;;;3.93;;
53598;SDS011;39485;45.702;11.364;2022-12-19T04:21:02;1.57;;;1.43;;
53598;SDS011;39485;45.702;11.364;2022-12-19T04:23:53;0.57;;;0.57;;
53598;SDS011;39485;45.702;11.364;2022-12-19T04:26:25;1.83;;;1.73;;
53598;SDS011;39485;45.702;11.364;2022-12-19T04:28:53;1.30;;;1.30;;
53598;SDS011;39485;45.702;11.364;2022-12-19T04:31:22;4.50;;;1.57;;
53598;SDS011;39485;45.702;11.364;2022-12-19T04:33:48;1.10;;;1.10;;
53598;SDS011;39485;45.702;11.364;2022-12-19T04:36:14;1.43;;;1.43;;
53598;SDS011;39485;45.702;11.364;2022-12-19T04:38:40;2.07;;;1.97;;
53598;SDS011;39485;45.702;11.364;2022-12-19T04:41:06;0.50;;;0.50;;
53598;SDS011;39485;45.702;11.364;2022-12-19T04:43:32;1.77;;;1.67;;
53598;SDS011;39485;45.702;11.364;2022-12-19T04:45:58;1.80;;;1.40;;
53598;SDS011;39485;45.702;11.364;2022-12-19T04:48:24;1.60;;;1.53;;
53598;SDS011;39485;45.702;11.364;2022-12-19T04:50:50;0.40;;;0.40;;
53598;SDS011;39485;45.702;11.364;2022-12-19T04:53:15;1.00;;;1.00;;
53598;SDS011;39485;45.702;11.364;2022-12-19T04:55:41;1.33;;;1.33;;
53598;SDS011;39485;45.702;11.364;2022-12-19T04:58:08;2.63;;;1.73;;
53598;SDS011;39485;45.702;11.364;2022-12-19T05:00:34;6.90;;;1.23;;
53598;SDS011;39485;45.702;11.364;2022-12-19T05:02:59;1.00;;;0.90;;
53598;SDS011;39485;45.702;11.364;2022-12-19T05:05:25;2.50;;;1.10;;
53598;SDS011;39485;45.702;11.364;2022-12-19T05:07:51;1.67;;;1.57;;
53598;SDS011;39485;45.702;11.364;2022-12-19T05:10:16;5.73;;;2.40;;
53598;SDS011;39485;45.702;11.364;2022-12-19T05:12:42;0.80;;;0.80;;
53598;SDS011;39485;45.702;11.364;2022-12-19T05:15:08;1.37;;;1.37;;
53598;SDS011;39485;45.702;11.364;2022-12-19T05:17:34;1.20;;;1.20;;
53598;SDS011;39485;45.702;11.364;2022-12-19T05:20:00;2.87;;;2.20;;
53598;SDS011;39485;45.702;11.364;2022-12-19T05:22:26;0.60;;;0.60;;
53598;SDS011;39485;45.702;11.364;2022-12-19T05:24:52;2.10;;;1.17;;
53598;SDS011;39485;45.702;11.364;2022-12-19T05:27:17;2.63;;;2.43;;
53598;SDS011;39485;45.702;11.364;2022-12-19T05:29:43;1.80;;;1.70;;
53598;SDS011;39485;45.702;11.364;2022-12-19T05:32:09;5.10;;;1.83;;
53598;SDS011;39485;45.702;11.364;2022-12-19T05:34:34;1.47;;;1.43;;
53598;SDS011;39485;45.702;11.364;2022-12-19T05:37:00;0.70;;;0.70;;
53598;SDS011;39485;45.702;11.364;2022-12-19T05:39:27;0.43;;;0.43;;
53598;SDS011;39485;45.702;11.364;2022-12-19T05:41:53;1.50;;;1.50;;
53598;SDS011;39485;45.702;11.364;2022-12-19T05:44:19;1.27;;;1.27;;
53598;SDS011;39485;45.702;11.364;2022-12-19T05:46:44;2.63;;;2.10;;
53598;SDS011;39485;45.702;11.364;2022-12-19T05:49:10;0.60;;;0.60;;
53598;SDS011;39485;45.702;11.364;2022-12-19T05:51:36;1.47;;;1.40;;
53598;SDS011;39485;45.702;11.364;2022-12-19T05:54:02;1.43;;;1.37;;
53598;SDS011;39485;45.702;11.364;2022-12-19T05:56:28;0.87;;;0.87;;
53598;SDS011;39485;45.702;11.364;2022-12-19T05:58:53;1.60;;;1.33;;
53598;SDS011;39485;45.702;11.364;2022-12-19T06:01:21;0.97;;;0.97;;
53598;SDS011;39485;45.702;11.364;2022-12-19T06:03:48;0.90;;;0.90;;
53598;SDS011;39485;45.702;11.364;2022-12-19T06:06:18;0.70;;;0.70;;
53598;SDS011;39485;45.702;11.364;2022-12-19T06:08:45;1.43;;;1.23;;
53598;SDS011;39485;45.702;11.364;2022-12-19T06:11:11;1.63;;;1.53;;
53598;SDS011;39485;45.702;11.364;2022-12-19T06:13:38;1.00;;;1.00;;
53598;SDS011;39485;45.702;11.364;2022-12-19T06:16:09;2.57;;;1.77;;
53598;SDS011;39485;45.702;11.364;2022-12-19T06:18:36;0.37;;;0.37;;
53598;SDS011;39485;45.702;11.364;2022-12-19T06:21:07;1.23;;;1.13;;
53598;SDS011;39485;45.702;11.364;2022-12-19T06:23:43;0.97;;;0.87;;
53598;SDS011;39485;45.702;11.364;2022-12-19T06:26:10;1.60;;;1.07;;
53598;SDS011;39485;45.702;11.364;2022-12-19T06:28:38;3.80;;;2.83;;
53598;SDS011;39485;45.702;11.364;2022-12-19T06:31:04;2.10;;;1.90;;
53598;SDS011;39485;45.702;11.364;2022-12-19T06:33:32;0.63;;;0.63;;
53598;SDS011;39485;45.702;11.364;2022-12-19T06:36:05;1.70;;;1.60;;
53598;SDS011;39485;45.702;11.364;2022-12-19T06:38:34;0.57;;;0.57;;
53598;SDS011;39485;45.702;11.364;2022-12-19T06:40:59;1.50;;;1.47;;
53598;SDS011;39485;45.702;11.364;2022-12-19T06:43:46;0.77;;;0.77;;
53598;SDS011;39485;45.702;11.364;2022-12-19T06:46:11;0.67;;;0.67;;
53598;SDS011;39485;45.702;11.364;2022-12-19T06:48:37;2.03;;;1.90;;
53598;SDS011;39485;45.702;11.364;2022-12-19T06:51:03;0.43;;;0.43;;
53598;SDS011;39485;45.702;11.364;2022-12-19T06:53:29;0.97;;;0.97;;
53598;SDS011;39485;45.702;11.364;2022-12-19T06:55:55;1.50;;;1.50;;
53598;SDS011;39485;45.702;11.364;2022-12-19T06:58:22;1.20;;;1.20;;
53598;SDS011;39485;45.702;11.364;2022-12-19T07:00:49;4.17;;;2.07;;
53598;SDS011;39485;45.702;11.364;2022-12-19T07:03:15;2.40;;;2.20;;
53598;SDS011;39485;45.702;11.364;2022-12-19T07:05:43;1.30;;;1.30;;
53598;SDS011;39485;45.702;11.364;2022-12-19T07:08:09;1.00;;;1.00;;
53598;SDS011;39485;45.702;11.364;2022-12-19T07:10:35;2.20;;;2.10;;
53598;SDS011;39485;45.702;11.364;2022-12-19T07:13:01;2.43;;;2.33;;
53598;SDS011;39485;45.702;11.364;2022-12-19T07:15:26;1.23;;;0.87;;
53598;SDS011;39485;45.702;11.364;2022-12-19T07:17:54;2.77;;;2.50;;
53598;SDS011;39485;45.702;11.364;2022-12-19T07:20:20;2.00;;;1.90;;
53598;SDS011;39485;45.702;11.364;2022-12-19T07:22:46;1.37;;;1.37;;
53598;SDS011;39485;45.702;11.364;2022-12-19T07:25:13;1.87;;;1.77;;
53598;SDS011;39485;45.702;11.364;2022-12-19T07:27:41;2.07;;;2.00;;
53598;SDS011;39485;45.702;11.364;2022-12-19T07:30:07;2.33;;;2.23;;
53598;SDS011;39485;45.702;11.364;2022-12-19T07:32:34;3.63;;;1.73;;
53598;SDS011;39485;45.702;11.364;2022-12-19T07:34:59;1.90;;;1.80;;
53598;SDS011;39485;45.702;11.364;2022-12-19T07:37:25;1.93;;;1.83;;
53598;SDS011;39485;45.702;11.364;2022-12-19T07:39:51;3.07;;;2.87;;
53598;SDS011;39485;45.702;11.364;2022-12-19T07:42:17;1.40;;;1.30;;
53598;SDS011;39485;45.702;11.364;2022-12-19T07:44:43;4.17;;;3.13;;
53598;SDS011;39485;45.702;11.364;2022-12-19T07:47:08;2.53;;;2.00;;
53598;SDS011;39485;45.702;11.364;2022-12-19T07:49:34;5.30;;;2.77;;
53598;SDS011;39485;45.702;11.364;2022-12-19T07:52:00;0.60;;;0.60;;
53598;SDS011;39485;45.702;11.364;2022-12-19T07:54:25;1.63;;;1.60;;
53598;SDS011;39485;45.702;11.364;2022-12-19T07:56:51;0.77;;;0.77;;
53598;SDS011;39485;45.702;11.364;2022-12-19T07:59:17;2.33;;;2.23;;
53598;SDS011;39485;45.702;11.364;2022-12-19T08:01:42;1.03;;;1.03;;
53598;SDS011;39485;45.702;11.364;2022-12-19T08:04:08;0.97;;;0.97;;
53598;SDS011;39485;45.702;11.364;2022-12-19T08:06:34;1.43;;;1.33;;
53598;SDS011;39485;45.702;11.364;2022-12-19T08:08:59;3.30;;;1.67;;
53598;SDS011;39485;45.702;11.364;2022-12-19T08:11:25;1.43;;;1.43;;
53598;SDS011;39485;45.702;11.364;2022-12-19T08:13:52;1.30;;;1.30;;
53598;SDS011;39485;45.702;11.364;2022-12-19T08:16:18;3.03;;;2.83;;
53598;SDS011;39485;45.702;11.364;2022-12-19T08:18:44;1.70;;;1.60;;
53598;SDS011;39485;45.702;11.364;2022-12-19T08:21:10;0.80;;;0.80;;
53598;SDS011;39485;45.702;11.364;2022-12-19T08:23:36;1.87;;;1.80;;
53598;SDS011;39485;45.702;11.364;2022-12-19T08:26:06;9.87;;;2.30;;
53598;SDS011;39485;45.702;11.364;2022-12-19T08:28:34;0.67;;;0.67;;
53598;SDS011;39485;45.702;11.364;2022-12-19T08:31:08;1.30;;;1.27;;
53598;SDS011;39485;45.702;11.364;2022-12-19T08:33:35;2.13;;;1.10;;
53598;SDS011;39485;45.702;11.364;2022-12-19T08:36:03;0.50;;;0.50;;
53598;SDS011;39485;45.702;11.364;2022-12-19T08:38:33;2.53;;;1.40;;
53598;SDS011;39485;45.702;11.364;2022-12-19T08:41:01;1.53;;;1.47;;
53598;SDS011;39485;45.702;11.364;2022-12-19T08:43:27;1.63;;;1.30;;
53598;SDS011;39485;45.702;11.364;2022-12-19T08:45:53;1.20;;;1.20;;
53598;SDS011;39485;45.702;11.364;2022-12-19T08:48:19;2.60;;;2.00;;
53598;SDS011;39485;45.702;11.364;2022-12-19T08:50:49;3.43;;;2.53;;
53598;SDS011;39485;45.702;11.364;2022-12-19T08:53:15;1.00;;;1.00;;
53598;SDS011;39485;45.702;11.364;2022-12-19T10:47:24;1.20;;;1.20;;
53598;SDS011;39485;45.702;11.364;2022-12-19T10:49:50;0.77;;;0.77;;
53598;SDS011;39485;45.702;11.364;2022-12-19T10:52:15;0.50;;;0.43;;
53598;SDS011;39485;45.702;11.364;2022-12-19T10:56:11;2.90;;;1.93;;
53598;SDS011;39485;45.702;11.364;2022-12-19T10:58:16;0.83;;;0.83;;
53598;SDS011;39485;45.702;11.364;2022-12-19T11:03:36;2.00;;;0.80;;
53598;SDS011;39485;45.702;11.364;2022-12-19T11:06:04;0.47;;;0.47;;
53598;SDS011;39485;45.702;11.364;2022-12-19T11:08:32;0.73;;;0.70;;
53598;SDS011;39485;45.702;11.364;2022-12-19T11:16:10;1.20;;;1.20;;
53598;SDS011;39485;45.702;11.364;2022-12-19T11:18:39;1.03;;;1.03;;
53598;SDS011;39485;45.702;11.364;2022-12-19T11:24:11;3.13;;;1.23;;
53598;SDS011;39485;45.702;11.364;2022-12-19T11:50:41;0.20;;;0.20;;
53598;SDS011;39485;45.702;11.364;2022-12-19T11:53:25;0.30;;;0.30;;
53598;SDS011;39485;45.702;11.364;2022-12-19T11:56:13;0.80;;;0.80;;
53598;SDS011;39485;45.702;11.364;2022-12-19T11:58:49;0.67;;;0.67;;
53598;SDS011;39485;45.702;11.364;2022-12-19T12:01:36;0.30;;;0.30;;
53598;SDS011;39485;45.702;11.364;2022-12-19T12:06:55;1.90;;;1.07;;
53598;SDS011;39485;45.702;11.364;2022-12-19T12:09:42;0.50;;;0.50;;
53598;SDS011;39485;45.702;11.364;2022-12-19T12:12:24;0.20;;;0.20;;
53598;SDS011;39485;45.702;11.364;2022-12-19T12:20:16;0.50;;;0.50;;
53598;SDS011;39485;45.702;11.364;2022-12-19T12:25:39;0.40;;;0.40;;
53598;SDS011;39485;45.702;11.364;2022-12-19T12:37:05;0.47;;;0.47;;
53598;SDS011;39485;45.702;11.364;2022-12-19T13:42:38;0.55;;;0.55;;
53598;SDS011;39485;45.702;11.364;2022-12-19T13:55:18;0.53;;;0.53;;
53598;SDS011;39485;45.702;11.364;2022-12-19T13:57:56;0.83;;;0.83;;
53598;SDS011;39485;45.702;11.364;2022-12-19T14:00:42;0.53;;;0.53;;
53598;SDS011;39485;45.702;11.364;2022-12-19T14:03:15;0.90;;;0.90;;
53598;SDS011;39485;45.702;11.364;2022-12-19T14:05:45;7.93;;;1.60;;
53598;SDS011;39485;45.702;11.364;2022-12-19T14:08:18;3.70;;;1.50;;
53598;SDS011;39485;45.702;11.364;2022-12-19T14:10:47;1.40;;;0.97;;
53598;SDS011;39485;45.702;11.364;2022-12-19T14:13:16;0.10;;;0.10;;
53598;SDS011;39485;45.702;11.364;2022-12-19T14:16:03;0.70;;;0.70;;
53598;SDS011;39485;45.702;11.364;2022-12-19T14:18:30;1.00;;;1.00;;
53598;SDS011;39485;45.702;11.364;2022-12-19T14:24:16;0.30;;;0.30;;
53598;SDS011;39485;45.702;11.364;2022-12-19T14:26:48;0.20;;;0.20;;
53598;SDS011;39485;45.702;11.364;2022-12-19T14:29:25;0.57;;;0.57;;
53598;SDS011;39485;45.702;11.364;2022-12-19T14:31:58;0.50;;;0.50;;
53598;SDS011;39485;45.702;11.364;2022-12-19T14:34:26;2.07;;;0.73;;
53598;SDS011;39485;45.702;11.364;2022-12-19T14:36:56;1.20;;;0.67;;
53598;SDS011;39485;45.702;11.364;2022-12-19T14:39:30;0.50;;;0.50;;
53598;SDS011;39485;45.702;11.364;2022-12-19T14:42:11;0.25;;;0.25;;
53598;SDS011;39485;45.702;11.364;2022-12-19T14:44:58;0.97;;;0.50;;
53598;SDS011;39485;45.702;11.364;2022-12-19T14:47:25;0.43;;;0.30;;
53598;SDS011;39485;45.702;11.364;2022-12-19T14:53:19;0.20;;;0.20;;
53598;SDS011;39485;45.702;11.364;2022-12-19T14:55:58;0.70;;;0.70;;
53598;SDS011;39485;45.702;11.364;2022-12-19T14:58:40;0.40;;;0.40;;
53598;SDS011;39485;45.702;11.364;2022-12-19T15:04:24;0.50;;;0.50;;
53598;SDS011;39485;45.702;11.364;2022-12-19T15:07:00;0.57;;;0.57;;
53598;SDS011;39485;45.702;11.364;2022-12-19T15:09:33;3.63;;;1.77;;
53598;SDS011;39485;45.702;11.364;2022-12-19T15:12:11;1.10;;;0.87;;
53598;SDS011;39485;45.702;11.364;2022-12-19T15:15:15;0.70;;;0.70;;
53598;SDS011;39485;45.702;11.364;2022-12-19T15:17:47;0.60;;;0.60;;
53598;SDS011;39485;45.702;11.364;2022-12-19T15:20:15;2.13;;;1.37;;
53598;SDS011;39485;45.702;11.364;2022-12-19T15:22:42;0.70;;;0.70;;
53598;SDS011;39485;45.702;11.364;2022-12-19T15:25:11;1.80;;;0.77;;
53598;SDS011;39485;45.702;11.364;2022-12-19T15:27:42;1.00;;;1.00;;
53598;SDS011;39485;45.702;11.364;2022-12-19T15:30:16;1.57;;;1.47;;
53598;SDS011;39485;45.702;11.364;2022-12-19T15:32:45;1.83;;;1.73;;
53598;SDS011;39485;45.702;11.364;2022-12-19T15:35:12;1.13;;;1.13;;
53598;SDS011;39485;45.702;11.364;2022-12-19T15:37:39;1.30;;;1.13;;
53598;SDS011;39485;45.702;11.364;2022-12-19T15:40:06;1.33;;;1.30;;
53598;SDS011;39485;45.702;11.364;2022-12-19T15:42:37;0.77;;;0.77;;
53598;SDS011;39485;45.702;11.364;2022-12-19T15:45:04;1.30;;;1.30;;
53598;SDS011;39485;45.702;11.364;2022-12-19T15:49:57;1.10;;;1.10;;
53598;SDS011;39485;45.702;11.364;2022-12-19T15:52:26;1.37;;;1.37;;
53598;SDS011;39485;45.702;11.364;2022-12-19T15:54:53;2.00;;;0.80;;
53598;SDS011;39485;45.702;11.364;2022-12-19T15:59:59;2.47;;;2.27;;
53598;SDS011;39485;45.702;11.364;2022-12-19T16:02:28;1.47;;;1.47;;
53598;SDS011;39485;45.702;11.364;2022-12-19T16:04:58;3.87;;;3.30;;
53598;SDS011;39485;45.702;11.364;2022-12-19T16:07:24;8.97;;;2.40;;
53598;SDS011;39485;45.702;11.364;2022-12-19T16:09:51;6.60;;;2.43;;
53598;SDS011;39485;45.702;11.364;2022-12-19T16:12:18;4.80;;;3.53;;
53598;SDS011;39485;45.702;11.364;2022-12-19T16:14:47;3.97;;;3.67;;
53598;SDS011;39485;45.702;11.364;2022-12-19T16:17:20;2.10;;;2.00;;
53598;SDS011;39485;45.702;11.364;2022-12-19T16:19:49;8.60;;;2.90;;
53598;SDS011;39485;45.702;11.364;2022-12-19T16:22:17;1.97;;;1.87;;
53598;SDS011;39485;45.702;11.364;2022-12-19T16:24:45;4.40;;;3.70;;
53598;SDS011;39485;45.702;11.364;2022-12-19T16:27:19;3.73;;;3.33;;
53598;SDS011;39485;45.702;11.364;2022-12-19T16:29:46;8.95;;;3.75;;
53598;SDS011;39485;45.702;11.364;2022-12-19T16:32:12;12.47;;;3.63;;
53598;SDS011;39485;45.702;11.364;2022-12-19T16:34:38;2.37;;;2.10;;
53598;SDS011;39485;45.702;11.364;2022-12-19T16:37:04;3.97;;;2.70;;
53598;SDS011;39485;45.702;11.364;2022-12-19T18:33:49;2.40;;;2.20;;
53598;SDS011;39485;45.702;11.364;2022-12-19T18:36:17;2.30;;;2.20;;
53598;SDS011;39485;45.702;11.364;2022-12-19T18:38:46;4.30;;;2.83;;
53598;SDS011;39485;45.702;11.364;2022-12-19T18:41:13;5.37;;;3.57;;
53598;SDS011;39485;45.702;11.364;2022-12-19T18:43:41;4.50;;;4.17;;
53598;SDS011;39485;45.702;11.364;2022-12-19T18:46:14;12.50;;;4.23;;
53598;SDS011;39485;45.702;11.364;2022-12-19T18:48:43;3.07;;;2.77;;
53598;SDS011;39485;45.702;11.364;2022-12-19T18:51:13;4.17;;;3.77;;
53598;SDS011;39485;45.702;11.364;2022-12-19T18:53:40;2.43;;;2.23;;
53598;SDS011;39485;45.702;11.364;2022-12-19T18:56:07;1.70;;;1.70;;
53598;SDS011;39485;45.702;11.364;2022-12-19T18:58:33;7.03;;;4.30;;
53598;SDS011;39485;45.702;11.364;2022-12-19T19:01:00;2.47;;;2.30;;
53598;SDS011;39485;45.702;11.364;2022-12-19T19:03:31;6.90;;;4.23;;
53598;SDS011;39485;45.702;11.364;2022-12-19T19:06:20;3.83;;;3.53;;
53598;SDS011;39485;45.702;11.364;2022-12-19T19:08:56;5.47;;;4.47;;
53598;SDS011;39485;45.702;11.364;2022-12-19T19:11:23;4.93;;;4.53;;
53598;SDS011;39485;45.702;11.364;2022-12-19T19:13:49;2.93;;;2.83;;
53598;SDS011;39485;45.702;11.364;2022-12-19T19:16:17;5.87;;;5.43;;
53598;SDS011;39485;45.702;11.364;2022-12-19T19:18:46;6.40;;;3.10;;
53598;SDS011;39485;45.702;11.364;2022-12-19T19:21:15;3.40;;;3.20;;
53598;SDS011;39485;45.702;11.364;2022-12-19T19:23:43;5.77;;;3.13;;
53598;SDS011;39485;45.702;11.364;2022-12-19T19:28:42;2.40;;;1.30;;
53598;SDS011;39485;45.702;11.364;2022-12-19T19:31:09;2.90;;;2.50;;
53598;SDS011;39485;45.702;11.364;2022-12-19T19:33:38;12.53;;;7.03;;
53598;SDS011;39485;45.702;11.364;2022-12-19T19:36:07;4.97;;;4.33;;
53598;SDS011;39485;45.702;11.364;2022-12-19T19:38:43;1.67;;;1.57;;
53598;SDS011;39485;45.702;11.364;2022-12-19T19:41:13;3.73;;;3.53;;
53598;SDS011;39485;45.702;11.364;2022-12-19T19:43:39;6.97;;;3.50;;
53598;SDS011;39485;45.702;11.364;2022-12-19T19:46:07;6.20;;;3.10;;
53598;SDS011;39485;45.702;11.364;2022-12-19T19:48:33;2.73;;;2.63;;
53598;SDS011;39485;45.702;11.364;2022-12-19T19:50:59;3.50;;;2.60;;
53598;SDS011;39485;45.702;11.364;2022-12-19T19:53:25;3.83;;;3.53;;
53598;SDS011;39485;45.702;11.364;2022-12-19T19:55:57;4.60;;;3.57;;
53598;SDS011;39485;45.702;11.364;2022-12-19T19:58:28;2.60;;;2.47;;
53598;SDS011;39485;45.702;11.364;2022-12-19T20:00:54;4.57;;;4.27;;
53598;SDS011;39485;45.702;11.364;2022-12-19T20:03:20;2.37;;;2.27;;
53598;SDS011;39485;45.702;11.364;2022-12-19T20:05:46;8.00;;;4.03;;
53598;SDS011;39485;45.702;11.364;2022-12-19T20:08:12;3.00;;;2.80;;
53598;SDS011;39485;45.702;11.364;2022-12-19T20:10:38;2.73;;;2.63;;
53598;SDS011;39485;45.702;11.364;2022-12-19T20:13:04;4.07;;;2.27;;
53598;SDS011;39485;45.702;11.364;2022-12-19T20:15:30;1.33;;;1.33;;
53598;SDS011;39485;45.702;11.364;2022-12-19T20:17:56;1.27;;;1.27;;
53598;SDS011;39485;45.702;11.364;2022-12-19T20:20:22;3.30;;;1.73;;
53598;SDS011;39485;45.702;11.364;2022-12-19T20:22:48;3.30;;;2.90;;
53598;SDS011;39485;45.702;11.364;2022-12-19T20:25:13;3.20;;;3.00;;
53598;SDS011;39485;45.702;11.364;2022-12-19T20:27:39;3.27;;;2.37;;
53598;SDS011;39485;45.702;11.364;2022-12-19T20:30:05;1.33;;;1.33;;
53598;SDS011;39485;45.702;11.364;2022-12-19T20:32:32;3.30;;;3.00;;
53598;SDS011;39485;45.702;11.364;2022-12-19T20:34:57;17.73;;;3.97;;
53598;SDS011;39485;45.702;11.364;2022-12-19T20:37:23;2.27;;;2.17;;
53598;SDS011;39485;45.702;11.364;2022-12-19T20:39:49;2.00;;;1.97;;
53598;SDS011;39485;45.702;11.364;2022-12-19T20:42:16;3.23;;;3.03;;
53598;SDS011;39485;45.702;11.364;2022-12-19T20:44:42;2.90;;;2.70;;
53598;SDS011;39485;45.702;11.364;2022-12-19T20:47:08;1.93;;;1.83;;
53598;SDS011;39485;45.702;11.364;2022-12-19T20:49:33;2.10;;;2.00;;
53598;SDS011;39485;45.702;11.364;2022-12-19T20:51:59;2.80;;;1.73;;
53598;SDS011;39485;45.702;11.364;2022-12-19T20:54:25;2.70;;;2.57;;
53598;SDS011;39485;45.702;11.364;2022-12-19T20:56:50;5.97;;;3.67;;
53598;SDS011;39485;45.702;11.364;2022-12-19T20:59:16;4.17;;;3.87;;
53598;SDS011;39485;45.702;11.364;2022-12-19T21:01:43;2.50;;;2.40;;
53598;SDS011;39485;45.702;11.364;2022-12-19T21:04:09;1.70;;;1.60;;
53598;SDS011;39485;45.702;11.364;2022-12-19T21:06:34;2.37;;;2.17;;
53598;SDS011;39485;45.702;11.364;2022-12-19T21:09:02;6.23;;;2.47;;
53598;SDS011;39485;45.702;11.364;2022-12-19T21:11:29;3.80;;;3.47;;
53598;SDS011;39485;45.702;11.364;2022-12-19T21:13:55;1.93;;;1.83;;
53598;SDS011;39485;45.702;11.364;2022-12-19T21:16:21;5.30;;;2.50;;
53598;SDS011;39485;45.702;11.364;2022-12-19T21:18:48;5.57;;;3.63;;
53598;SDS011;39485;45.702;11.364;2022-12-19T21:21:19;4.37;;;3.50;;
53598;SDS011;39485;45.702;11.364;2022-12-19T21:23:47;6.37;;;3.17;;
53598;SDS011;39485;45.702;11.364;2022-12-19T21:26:13;4.57;;;2.80;;
53598;SDS011;39485;45.702;11.364;2022-12-19T21:28:39;3.87;;;3.57;;
53598;SDS011;39485;45.702;11.364;2022-12-19T21:31:09;1.93;;;1.83;;
53598;SDS011;39485;45.702;11.364;2022-12-19T21:33:44;2.43;;;2.30;;